Hlavní strana
METAR-TAF:

METAR-TAF

Letiště :

Tarawa, Kiribati

zeměpisná šířka: 01-21N, zeměpisná délka: 172-55E, výška: 2 m

Aktuální stav počasí

Zpráva byla vytvořena před 22 minutami, v 00:00 UTC
Východní vítr 18 kt
Teplota 31°C
Vlhkost vzduchu 79%
Tlak 1007 hPa
Viditelnost 10 km a více
Skoro jasno ve výšce 2000 ft
Polojasno ve výšce 30000 ft

METAR: NGTA 180000Z 10018KT 9999 FEW020 SCT300 31/27 Q1007

Čas: 14:22 (00:22 UTC)

Předpověď počasí

Zpráva byla vytvořena před 1 hodinou a 3 minutami, v 23:19 UTC
Předpověď platná od 18 v 00 UTC do 18 v 24 UTC
Východní vítr 15 kt
Viditelnost 10 km a více
Polojasno ve výšce 2000 ft
Polojasno ve výšce 10000 ft

TAF: NGTA 172319Z 1800/1824 09015KT 9999 SCT020 SCT100

Stav a předpovědi počasí z více než 4 000 letišť (zprávy METAR a TAF).

Červené a žluté tečky na mapě představují dostupné meteorologické stanice.

Když kurzor umístíte na tečku, zobrazí se název stanice.

Pak kliknutím zobrazíte stav a předpověď počasí.

Chcete-li změnit mapu, kliknutím na zelené tlačítko se znaménkem +mapu přiblížíte, kliknutím na zelené tlačítko se znaménkem – mapu oddálíte a kliknutím na zelené šipky přejdete na sousední mapy.


METAR-TAF: